createdAt,value
2018-11-21T00:00:36.442Z,22.83
2018-11-21T00:03:16.708Z,20.17
2018-11-21T00:05:57.102Z,24.37
2018-11-21T00:08:37.785Z,18.97
2018-11-21T00:11:19.033Z,22.93
2018-11-21T00:13:59.589Z,19.57
2018-11-21T00:16:40.123Z,20.70
2018-11-21T00:19:20.937Z,26.97
2018-11-21T00:22:01.483Z,24.23
2018-11-21T00:24:41.831Z,24.77
2018-11-21T00:27:23.264Z,21.97
2018-11-21T00:29:52.086Z,25.03
2018-11-21T00:32:40.010Z,22.70
2018-11-21T00:35:27.998Z,23.13
2018-11-21T00:38:09.348Z,20.83
2018-11-21T00:40:50.557Z,20.50
2018-11-21T00:43:31.606Z,21.17
2018-11-21T00:46:12.447Z,23.80
2018-11-21T00:48:53.301Z,22.50
2018-11-21T00:51:33.699Z,29.47
2018-11-21T00:54:14.257Z,25.60
2018-11-21T00:56:55.245Z,24.93
2018-11-21T00:59:36.253Z,24.30
2018-11-21T01:02:16.787Z,23.53
2018-11-21T01:04:57.677Z,24.07
2018-11-21T01:07:38.211Z,24.33
2018-11-21T01:10:19.311Z,26.30
2018-11-21T01:12:59.661Z,26.77
2018-11-21T01:15:40.785Z,23.87
2018-11-21T01:18:21.983Z,24.77
2018-11-21T01:21:02.822Z,23.27
2018-11-21T01:23:43.717Z,26.33
2018-11-21T01:26:24.105Z,21.30
2018-11-21T01:29:04.577Z,22.67
2018-11-21T01:31:45.642Z,22.90
2018-11-21T01:34:25.903Z,21.30
2018-11-21T01:37:06.940Z,23.77
2018-11-21T01:39:47.945Z,28.23
2018-11-21T01:42:28.723Z,22.53
2018-11-21T01:45:09.438Z,22.83
2018-11-21T01:47:49.900Z,21.10
2018-11-21T01:53:13.917Z,20.47
2018-11-21T01:55:54.936Z,23.57
2018-11-21T01:58:35.543Z,24.00
2018-11-21T02:01:16.498Z,18.47
2018-11-21T02:03:57.307Z,22.23
2018-11-21T02:06:37.847Z,20.70
2018-11-21T02:09:18.214Z,20.60
2018-11-21T02:11:58.761Z,20.20
2018-11-21T02:14:27.385Z,19.37
2018-11-21T02:17:15.618Z,18.10
2018-11-21T02:19:56.585Z,17.47
2018-11-21T02:22:37.108Z,19.50
2018-11-21T02:25:18.337Z,17.57
2018-11-21T02:27:58.832Z,16.67
2018-11-21T02:30:39.737Z,15.30
2018-11-21T02:33:20.618Z,16.93
2018-11-21T02:36:01.903Z,15.27
2018-11-21T02:38:30.139Z,14.67
2018-11-21T02:41:17.589Z,14.83
2018-11-21T02:43:58.515Z,16.90
2018-11-21T02:46:39.800Z,15.60
2018-11-21T02:49:20.350Z,15.47
2018-11-21T02:52:01.546Z,15.40
2018-11-21T02:54:42.536Z,18.20
2018-11-21T02:57:24.430Z,16.30
2018-11-21T03:00:05.495Z,15.23
2018-11-21T03:02:46.381Z,13.33
2018-11-21T03:05:26.910Z,15.60
2018-11-21T03:08:08.076Z,13.00
2018-11-21T03:10:48.701Z,16.60
2018-11-21T03:13:29.812Z,16.10
2018-11-21T03:16:11.183Z,13.73
2018-11-21T03:18:52.499Z,16.67
2018-11-21T03:21:33.050Z,14.13
2018-11-21T03:24:13.924Z,15.37
2018-11-21T03:26:54.840Z,13.03
2018-11-21T03:29:35.741Z,14.23
2018-11-21T03:32:16.970Z,14.73
2018-11-21T03:34:57.913Z,15.73
2018-11-21T03:37:38.679Z,14.70
2018-11-21T03:40:19.170Z,17.33
2018-11-21T03:42:59.981Z,13.93
2018-11-21T03:45:40.263Z,14.47
2018-11-21T03:48:20.635Z,15.50
2018-11-21T03:51:00.973Z,14.47
2018-11-21T03:53:41.134Z,15.37
2018-11-21T03:56:21.494Z,14.10
2018-11-21T03:59:02.962Z,13.40
2018-11-21T04:01:43.313Z,15.17
2018-11-21T04:04:23.860Z,14.80
2018-11-21T04:07:03.986Z,13.30
2018-11-21T04:09:32.229Z,11.60
2018-11-21T04:12:19.899Z,13.67
2018-11-21T04:15:08.328Z,14.43
2018-11-21T04:17:49.338Z,13.47
2018-11-21T04:20:29.580Z,13.23
2018-11-21T04:23:10.148Z,14.90
2018-11-21T04:25:38.460Z,13.97
2018-11-21T04:28:26.371Z,14.07
2018-11-21T04:31:06.975Z,14.77
2018-11-21T04:33:47.192Z,13.23
2018-11-21T04:36:28.138Z,13.27
2018-11-21T04:38:57.236Z,16.73
2018-11-21T04:41:44.879Z,12.20
2018-11-21T04:44:32.514Z,13.17
2018-11-21T04:47:13.390Z,15.87
2018-11-21T04:49:54.027Z,14.57
2018-11-21T04:52:34.950Z,11.87
2018-11-21T04:55:16.007Z,14.70
2018-11-21T04:57:56.412Z,14.87
2018-11-21T05:00:36.596Z,14.47
2018-11-21T05:03:05.379Z,17.93
2018-11-21T05:05:33.942Z,19.90
2018-11-21T05:08:21.561Z,22.97
2018-11-21T05:11:02.208Z,24.97
2018-11-21T05:13:42.885Z,21.63
2018-11-21T05:16:23.472Z,17.83
2018-11-21T05:19:03.859Z,17.40
2018-11-21T05:21:44.946Z,15.77
2018-11-21T05:24:25.935Z,14.63
2018-11-21T05:27:06.344Z,13.40
2018-11-21T05:29:46.589Z,17.40
2018-11-21T05:32:27.866Z,16.63
2018-11-21T05:37:51.865Z,14.53
2018-11-21T05:40:32.828Z,15.23
2018-11-21T05:43:13.218Z,13.13
2018-11-21T05:45:53.782Z,15.33
2018-11-21T05:48:34.245Z,15.30
2018-11-21T05:51:14.783Z,16.23
2018-11-21T05:53:55.447Z,14.57
2018-11-21T05:56:36.497Z,14.80
2018-11-21T05:59:16.692Z,14.70
2018-11-21T06:01:57.816Z,14.27
2018-11-21T06:04:38.571Z,14.23
2018-11-21T06:07:19.718Z,14.73
2018-11-21T06:10:00.264Z,14.13
2018-11-21T06:12:41.044Z,15.93
2018-11-21T06:15:21.574Z,14.03
2018-11-21T06:18:02.563Z,14.97
2018-11-21T06:20:43.572Z,14.13
2018-11-21T06:23:24.676Z,14.60
2018-11-21T06:28:49.360Z,16.00
2018-11-21T06:31:30.466Z,14.27
2018-11-21T06:34:10.669Z,14.37
2018-11-21T06:36:51.164Z,17.90
2018-11-21T06:39:31.777Z,14.13
2018-11-21T06:42:12.140Z,14.27
2018-11-21T06:44:53.252Z,14.23
2018-11-21T06:47:34.424Z,16.83
2018-11-21T06:50:15.728Z,16.30
2018-11-21T06:52:57.086Z,15.43
2018-11-21T06:55:38.150Z,16.33
2018-11-21T06:58:19.005Z,14.97
2018-11-21T07:01:00.444Z,17.03
2018-11-21T07:03:41.350Z,15.73
2018-11-21T07:06:21.819Z,15.80
2018-11-21T07:09:02.281Z,16.90
2018-11-21T07:11:43.049Z,17.00
2018-11-21T07:14:23.345Z,16.73
2018-11-21T07:17:03.989Z,18.57
2018-11-21T07:19:44.507Z,16.73
2018-11-21T07:22:25.632Z,17.73
2018-11-21T07:25:06.159Z,16.63
2018-11-21T07:27:46.630Z,16.17
2018-11-21T07:30:27.425Z,16.00
2018-11-21T07:33:08.658Z,17.30
2018-11-21T07:35:49.553Z,15.63
2018-11-21T07:38:29.898Z,17.33
2018-11-21T07:41:10.706Z,14.27
2018-11-21T07:43:51.434Z,15.90
2018-11-21T07:46:32.745Z,14.63
2018-11-21T07:49:13.988Z,16.57
2018-11-21T07:51:54.821Z,16.00
2018-11-21T07:54:35.382Z,14.53
2018-11-21T07:57:15.965Z,15.67
2018-11-21T07:59:57.177Z,14.47
2018-11-21T08:02:39.524Z,17.53
2018-11-21T08:05:28.229Z,15.87
2018-11-21T08:08:25.653Z,16.07
2018-11-21T08:11:18.615Z,15.67
2018-11-21T08:14:18.270Z,16.33
2018-11-21T08:17:13.026Z,16.83
2018-11-21T08:20:14.373Z,14.43
2018-11-21T08:23:14.891Z,12.47
2018-11-21T08:28:59.814Z,14.40
2018-11-21T08:31:40.518Z,13.30
2018-11-21T08:34:21.937Z,13.17
2018-11-21T08:37:03.126Z,13.43
2018-11-21T08:39:43.766Z,12.10
2018-11-21T08:42:24.884Z,12.00
2018-11-21T08:45:05.935Z,14.33
2018-11-21T08:47:46.693Z,13.20
2018-11-21T08:50:27.531Z,11.37
2018-11-21T08:53:08.022Z,13.03
2018-11-21T08:55:49.194Z,12.27
2018-11-21T08:58:30.206Z,13.07
2018-11-21T09:01:11.555Z,13.07
2018-11-21T09:03:52.677Z,12.73
2018-11-21T09:06:33.879Z,12.33
2018-11-21T09:09:17.816Z,12.00
2018-11-21T09:11:58.606Z,13.17
2018-11-21T09:14:39.355Z,11.57
2018-11-21T09:17:19.922Z,13.87
2018-11-21T09:20:00.766Z,13.63
2018-11-21T09:22:41.364Z,13.03
2018-11-21T09:25:22.123Z,13.53
2018-11-21T09:28:03.629Z,11.03
2018-11-21T09:30:44.175Z,11.23
2018-11-21T09:33:25.415Z,12.73
2018-11-21T09:36:06.772Z,11.77
2018-11-21T09:41:33.683Z,10.57
2018-11-21T09:44:14.073Z,10.60
2018-11-21T09:46:54.515Z,11.57
2018-11-21T09:49:35.207Z,10.93
2018-11-21T09:52:15.716Z,9.90
2018-11-21T09:54:56.327Z,14.17
2018-11-21T09:57:36.915Z,13.27
2018-11-21T10:00:18.088Z,9.90
2018-11-21T10:02:59.495Z,12.33
2018-11-21T10:05:28.421Z,13.17
2018-11-21T10:08:17.952Z,12.07
2018-11-21T10:10:58.889Z,14.60
2018-11-21T10:13:39.783Z,10.73
2018-11-21T10:16:20.997Z,12.77
2018-11-21T10:19:02.034Z,11.67
2018-11-21T10:21:43.107Z,11.77
2018-11-21T10:24:23.936Z,12.00
2018-11-21T10:27:04.739Z,11.67
2018-11-21T10:29:48.556Z,12.43
2018-11-21T10:32:29.716Z,13.97
2018-11-21T10:35:10.368Z,13.73
2018-11-21T10:37:50.685Z,12.67
2018-11-21T10:40:31.320Z,12.20
2018-11-21T10:43:12.376Z,12.10
2018-11-21T10:45:53.209Z,15.00
2018-11-21T10:48:33.715Z,12.43
2018-11-21T10:54:00.071Z,12.07
2018-11-21T10:56:41.187Z,13.13
2018-11-21T10:59:22.068Z,12.30
2018-11-21T11:05:26.974Z,12.50
2018-11-21T11:11:31.657Z,11.53
2018-11-21T11:14:34.637Z,13.60
2018-11-21T11:20:18.828Z,11.30
2018-11-21T11:26:06.400Z,12.57
2018-11-21T11:29:12.368Z,17.73
2018-11-21T11:32:06.941Z,13.47
2018-11-21T11:35:06.439Z,11.77
2018-11-21T11:44:20.778Z,13.07
2018-11-21T11:50:05.562Z,12.90
2018-11-21T11:53:05.652Z,12.30
2018-11-21T11:56:01.246Z,13.93
2018-11-21T12:02:08.569Z,12.13
2018-11-21T12:05:11.649Z,14.10
2018-11-21T12:08:17.306Z,14.03
2018-11-21T12:11:18.359Z,16.23
2018-11-21T12:17:26.977Z,13.13
2018-11-21T12:20:26.919Z,12.00
2018-11-21T12:26:36.569Z,10.67
2018-11-21T12:29:42.957Z,12.97
2018-11-21T12:32:39.316Z,12.37
2018-11-21T12:35:37.125Z,11.67
2018-11-21T12:38:30.423Z,11.03
2018-11-21T12:41:31.523Z,13.77
2018-11-21T12:47:35.612Z,14.23
2018-11-21T12:50:16.059Z,12.93
2018-11-21T12:55:55.001Z,13.00
2018-11-21T13:01:59.037Z,14.23
2018-11-21T13:08:03.847Z,11.70
2018-11-21T13:11:04.590Z,13.27
2018-11-21T13:14:10.670Z,11.77
2018-11-21T13:17:11.000Z,13.10
2018-11-21T13:23:16.016Z,12.13
2018-11-21T13:26:15.149Z,10.77
2018-11-21T13:29:21.518Z,13.43
2018-11-21T13:32:24.438Z,12.77
2018-11-21T13:35:25.836Z,13.70
2018-11-21T13:38:25.336Z,19.30
2018-11-21T13:41:25.405Z,10.30
2018-11-21T13:44:21.519Z,10.77
2018-11-21T13:47:24.110Z,27.27
2018-11-21T13:53:15.129Z,9.83
2018-11-21T13:55:55.475Z,11.23
2018-11-21T13:58:35.667Z,10.67
2018-11-21T14:01:16.340Z,12.33
2018-11-21T14:03:57.130Z,11.80
2018-11-21T14:06:37.695Z,13.77
2018-11-21T14:09:22.213Z,11.53
2018-11-21T14:12:03.081Z,13.53
2018-11-21T14:14:43.630Z,14.60
2018-11-21T14:17:27.656Z,14.57
2018-11-21T14:20:05.672Z,12.03
2018-11-21T14:22:46.560Z,11.40
2018-11-21T14:25:27.576Z,12.03
2018-11-21T14:28:08.615Z,10.57
2018-11-21T14:30:49.436Z,12.57
2018-11-21T14:33:30.524Z,11.93
2018-11-21T14:36:10.852Z,13.47
2018-11-21T14:38:51.986Z,14.03
2018-11-21T14:41:32.521Z,14.50
2018-11-21T14:44:13.111Z,11.83
2018-11-21T14:46:54.616Z,16.63
2018-11-21T14:49:35.717Z,15.93
2018-11-21T14:52:16.282Z,13.03
2018-11-21T14:54:56.621Z,13.33
2018-11-21T14:57:37.647Z,21.07
2018-11-21T15:00:19.272Z,16.97
2018-11-21T15:03:00.399Z,14.17
2018-11-21T15:05:41.622Z,22.77
2018-11-21T15:08:22.945Z,22.87
2018-11-21T15:11:03.872Z,28.87
2018-11-21T15:13:44.786Z,18.50
2018-11-21T15:16:25.483Z,22.67
2018-11-21T15:19:06.279Z,17.17
2018-11-21T15:21:46.588Z,17.37
2018-11-21T15:24:27.151Z,16.23
2018-11-21T15:27:08.111Z,14.43
2018-11-21T15:29:49.351Z,13.97
2018-11-21T15:32:29.631Z,15.50
2018-11-21T15:35:10.277Z,13.73
2018-11-21T15:37:51.453Z,14.93
2018-11-21T15:40:32.341Z,13.57
2018-11-21T15:43:12.614Z,14.37
2018-11-21T15:45:53.917Z,12.73
2018-11-21T15:48:34.971Z,16.03
2018-11-21T15:51:15.842Z,14.50
2018-11-21T15:53:57.178Z,15.07
2018-11-21T15:56:37.655Z,15.00
2018-11-21T15:59:19.030Z,20.43
2018-11-21T16:02:00.404Z,16.23
2018-11-21T16:04:47.903Z,15.73
2018-11-21T16:07:22.566Z,15.93
2018-11-21T16:10:09.655Z,18.10
2018-11-21T16:12:43.504Z,13.27
2018-11-21T16:15:25.086Z,13.60
2018-11-21T16:20:56.917Z,12.57
2018-11-21T16:23:37.914Z,12.13
